Time;durP1;ratioP1;P1;durP2;ratioP2;P2;SDS_P1;SDS_P2;PMS_P1;PMS_P2;Temp;Humidity;BMP_temperature;BMP_pressure;BME280_temperature;BME280_humidity;BME280_pressure;Samples;Min_cycle;Max_cycle;Signal;HPM_P1;HPM_P2
2021/03/22 00:00:22;;;;;;;30.92;9.32;;;;;;;9.46;62.80;102679.00;5033019;28;20032;-81
2021/03/22 00:02:50;;;;;;;33.15;9.45;;;;;;;9.41;62.73;102671.84;5032649;28;20044;-81
2021/03/22 00:05:17;;;;;;;32.92;8.30;;;;;;;9.39;62.78;102672.75;5033137;28;20104;-80
2021/03/22 00:07:45;;;;;;;34.50;9.35;;;;;;;9.48;62.91;102668.44;5032756;28;20116;-80
2021/03/22 00:10:12;;;;;;;34.50;9.88;;;;;;;9.48;62.72;102668.44;5033604;28;20392;-81
2021/03/22 00:12:39;;;;;;;24.40;7.72;;;;;;;9.51;62.78;102668.50;5032577;28;20109;-81
2021/03/22 00:15:06;;;;;;;31.45;8.93;;;;;;;9.56;62.26;102661.50;5032676;28;20518;-81
2021/03/22 00:17:33;;;;;;;37.78;8.05;;;;;;;9.57;62.56;102660.63;5029814;28;20033;-80
2021/03/22 00:20:00;;;;;;;30.52;8.20;;;;;;;9.58;62.01;102657.09;5032125;28;20037;-80
2021/03/22 00:22:27;;;;;;;40.10;7.65;;;;;;;9.57;62.16;102663.28;5032021;28;20200;-81
2021/03/22 00:24:53;;;;;;;37.20;8.43;;;;;;;9.59;62.57;102660.66;5032640;28;20543;-81
2021/03/22 00:27:20;;;;;;;26.92;9.13;;;;;;;9.64;62.08;102664.25;5032292;28;20355;-81
2021/03/22 00:29:47;;;;;;;36.80;8.82;;;;;;;9.67;62.08;102665.19;5033146;28;20025;-81
2021/03/22 00:32:13;;;;;;;43.05;8.45;;;;;;;9.63;62.05;102659.81;5032328;28;20030;-80
2021/03/22 00:34:40;;;;;;;42.05;10.25;;;;;;;9.62;62.28;102656.28;5033491;28;20385;-80
2021/03/22 00:37:06;;;;;;;39.45;9.50;;;;;;;9.64;62.21;102654.53;5032784;28;20057;-81
2021/03/22 00:39:33;;;;;;;34.78;8.40;;;;;;;9.64;62.12;102654.53;5033549;28;20392;-80
2021/03/22 00:42:00;;;;;;;27.45;7.57;;;;;;;9.65;62.25;102655.44;5032333;28;20087;-83
2021/03/22 00:44:28;;;;;;;27.92;7.88;;;;;;;9.69;62.01;102658.16;5032330;28;20018;-81
2021/03/22 00:46:54;;;;;;;31.35;8.65;;;;;;;9.62;62.41;102656.28;5029971;28;20116;-80
2021/03/22 00:49:21;;;;;;;34.95;9.02;;;;;;;9.67;61.79;102654.59;5032554;28;20068;-81
2021/03/22 00:51:48;;;;;;;35.03;7.82;;;;;;;9.72;61.89;102654.66;5032727;28;20381;-81
2021/03/22 00:54:15;;;;;;;36.20;7.72;;;;;;;9.68;61.41;102648.44;5032314;28;20386;-81
2021/03/22 00:56:41;;;;;;;29.67;8.48;;;;;;;9.70;61.35;102659.03;5029863;28;20029;-82
2021/03/22 00:59:08;;;;;;;30.45;6.75;;;;;;;9.67;61.34;102649.28;5032031;28;20484;-81
2021/03/22 01:01:34;;;;;;;26.85;7.97;;;;;;;9.67;61.43;102653.69;5030693;28;20037;-81
2021/03/22 01:04:01;;;;;;;30.10;8.00;;;;;;;9.74;60.94;102646.72;5031951;28;20083;-81
2021/03/22 01:06:27;;;;;;;15.40;7.25;;;;;;;9.74;61.07;102644.97;5032403;28;20037;-81
2021/03/22 01:08:54;;;;;;;25.65;7.82;;;;;;;9.70;61.37;102651.97;5032325;28;20032;-81
2021/03/22 01:11:22;;;;;;;24.65;6.70;;;;;;;9.77;61.39;102641.47;5032583;28;20033;-81
2021/03/22 01:13:54;;;;;;;23.25;7.32;;;;;;;9.76;60.70;102647.63;5032595;28;20032;-81
2021/03/22 01:16:32;;;;;;;29.13;6.97;;;;;;;9.80;60.60;102638.88;5032210;28;20030;-83
2021/03/22 01:19:01;;;;;;;29.77;7.45;;;;;;;9.70;60.81;102644.03;5030774;28;20179;-80
2021/03/22 01:21:34;;;;;;;26.63;7.07;;;;;;;9.73;61.12;102645.81;5031731;28;20115;-81
2021/03/22 01:24:02;;;;;;;24.48;6.57;;;;;;;9.66;61.10;102642.22;5030205;28;20025;-84
2021/03/22 01:26:37;;;;;;;27.13;6.65;;;;;;;9.68;60.73;102640.50;5031859;28;20032;-81
2021/03/22 01:29:32;;;;;;;25.65;7.25;;;;;;;9.66;60.68;102631.63;5027761;28;20041;-81
2021/03/22 01:32:00;;;;;;;30.85;8.35;;;;;;;9.62;60.86;102635.13;5045463;22;20064;-84
2021/03/22 01:34:30;;;;;;;34.55;7.68;;;;;;;9.71;60.67;102629.94;5029952;28;20470;-84
2021/03/22 01:36:57;;;;;;;28.92;6.88;;;;;;;9.74;60.48;102623.78;5027301;28;20511;-84
2021/03/22 01:39:27;;;;;;;28.10;7.63;;;;;;;9.60;61.09;102634.19;5024833;28;20026;-84
2021/03/22 01:44:38;;;;;;;31.13;7.70;;;;;;;9.57;61.07;102625.34;5084223;27;20405;-84
2021/03/22 01:47:23;;;;;;;25.27;8.20;;;;;;;9.71;60.89;102619.34;5068690;28;20028;-85
2021/03/22 01:49:58;;;;;;;34.53;7.20;;;;;;;9.54;61.00;102626.19;5069139;28;20052;-83
2021/03/22 01:52:26;;;;;;;30.90;8.05;;;;;;;9.69;60.74;102618.44;5061442;28;20039;-86
2021/03/22 01:54:54;;;;;;;21.35;7.57;;;;;;;9.74;60.41;102613.19;5057157;28;20455;-85
2021/03/22 01:57:29;;;;;;;25.95;6.70;;;;;;;9.75;60.63;102608.81;5057518;28;20041;-84
2021/03/22 02:00:10;;;;;;;26.00;7.72;;;;;;;9.78;60.35;102608.81;5054327;28;20037;-84
2021/03/22 02:02:39;;;;;;;34.63;8.07;;;;;;;9.60;61.03;102615.69;5060441;28;20472;-84
2021/03/22 02:05:08;;;;;;;29.80;9.15;;;;;;;9.53;61.54;102617.38;5060767;28;20025;-84
2021/03/22 02:07:35;;;;;;;34.10;8.38;;;;;;;9.61;60.51;102617.47;5059185;28;20013;-84
2021/03/22 02:10:03;;;;;;;28.02;9.52;;;;;;;9.58;60.53;102619.19;5060968;28;20021;-84
2021/03/22 02:12:29;;;;;;;32.05;8.73;;;;;;;9.47;60.87;102613.72;5058786;28;20067;-83
2021/03/22 02:14:59;;;;;;;30.17;8.30;;;;;;;9.60;60.88;102605.09;5058959;28;20029;-83
2021/03/22 02:17:50;;;;;;;31.23;8.60;;;;;;;9.50;60.63;102606.72;5057829;28;20026;-83
2021/03/22 02:23:56;;;;;;;32.35;8.45;;;;;;;9.35;60.87;102615.34;5114027;27;20892;-83
2021/03/22 02:27:02;;;;;;;29.35;8.70;;;;;;;9.34;61.06;102618.84;5108997;28;20036;-83
2021/03/22 02:30:08;;;;;;;33.20;9.02;;;;;;;9.44;60.99;102617.22;5112480;28;20050;-85
2021/03/22 02:33:06;;;;;;;29.90;9.52;;;;;;;9.37;61.21;102605.69;5086158;28;20060;-83
2021/03/22 02:35:46;;;;;;;35.33;8.32;;;;;;;9.33;61.24;102611.81;5090496;28;20397;-84
2021/03/22 02:38:36;;;;;;;32.42;8.95;;;;;;;9.38;60.59;102602.19;5090929;28;20494;-83
2021/03/22 02:41:12;;;;;;;28.45;8.48;;;;;;;9.34;61.00;102607.41;5091347;28;20056;-84
2021/03/22 02:43:39;;;;;;;31.77;8.35;;;;;;;9.31;61.10;102605.59;5089465;28;20111;-83
2021/03/22 02:46:08;;;;;;;39.65;8.77;;;;;;;9.34;60.97;102602.97;5091320;28;20475;-84
2021/03/22 02:48:38;;;;;;;30.35;8.45;;;;;;;9.34;61.24;102610.91;5087388;28;20036;-83
2021/03/22 02:54:09;;;;;;;28.17;8.95;;;;;;;9.57;60.62;102609.44;5083062;27;20409;-84
2021/03/22 02:59:28;;;;;;;30.65;8.25;;;;;;;9.51;60.94;102607.63;5073299;28;20443;-83
2021/03/22 03:02:00;;;;;;;28.55;8.20;;;;;;;9.52;60.58;102606.75;5065302;28;20052;-84
2021/03/22 03:04:28;;;;;;;29.17;8.65;;;;;;;9.51;60.88;102599.69;5062821;28;20024;-84
2021/03/22 03:06:59;;;;;;;27.23;7.95;;;;;;;9.54;61.00;102603.28;5062802;28;20021;-84
2021/03/22 03:09:29;;;;;;;28.52;9.57;;;;;;;9.58;60.81;102606.81;5063278;28;20023;-84
2021/03/22 03:12:07;;;;;;;28.17;9.02;;;;;;;9.55;60.82;102601.50;5062661;28;20091;-83
2021/03/22 03:14:33;;;;;;;30.35;8.32;;;;;;;9.57;60.79;102599.78;5061174;28;20036;-83
2021/03/22 03:17:00;;;;;;;27.08;8.10;;;;;;;9.61;60.34;102605.97;5059153;28;20031;-84
2021/03/22 03:19:26;;;;;;;33.55;8.40;;;;;;;9.59;60.76;102611.25;5061590;28;20037;-85
2021/03/22 03:22:02;;;;;;;28.15;9.90;;;;;;;9.63;60.31;102604.22;5060733;28;20017;-85
2021/03/22 03:24:35;;;;;;;29.52;8.90;;;;;;;9.65;60.35;102613.09;5064178;28;20127;-85
2021/03/22 03:27:07;;;;;;;38.88;8.88;;;;;;;9.68;60.95;102605.19;5062228;28;20020;-85
2021/03/22 03:29:43;;;;;;;29.83;8.07;;;;;;;9.69;60.65;102609.59;5063650;28;20150;-84
2021/03/22 03:32:14;;;;;;;23.45;7.65;;;;;;;9.68;60.74;102608.72;5061046;28;20025;-83
2021/03/22 03:34:41;;;;;;;28.35;8.05;;;;;;;9.68;60.57;102614.03;5060066;28;20164;-84
2021/03/22 03:37:09;;;;;;;21.35;7.18;;;;;;;9.71;60.79;102615.81;5058677;28;20041;-83
2021/03/22 03:39:36;;;;;;;19.05;6.85;;;;;;;9.69;60.46;102606.97;5061942;28;20024;-84
2021/03/22 03:42:05;;;;;;;23.75;6.78;;;;;;;9.65;60.91;102608.69;5059937;28;20468;-84
2021/03/22 03:44:32;;;;;;;29.83;7.07;;;;;;;9.64;61.00;102609.53;5063011;28;20021;-84
2021/03/22 03:46:58;;;;;;;24.80;7.25;;;;;;;9.67;60.53;102611.34;5061797;28;20513;-83
2021/03/22 03:49:25;;;;;;;29.20;6.75;;;;;;;9.61;60.87;102612.16;5062770;28;20026;-84
2021/03/22 03:51:51;;;;;;;28.50;8.13;;;;;;;9.61;61.09;102617.47;5060731;28;20053;-84
2021/03/22 03:54:19;;;;;;;30.42;7.82;;;;;;;9.58;60.88;102617.41;5062011;28;20029;-84
2021/03/22 03:56:46;;;;;;;36.45;6.75;;;;;;;9.57;60.82;102615.66;5057950;28;20472;-84
2021/03/22 03:59:12;;;;;;;31.40;6.90;;;;;;;9.56;61.41;102613.88;5062428;28;20053;-84
2021/03/22 04:01:39;;;;;;;22.50;6.13;;;;;;;9.61;60.84;102613.91;5062196;28;20101;-84
2021/03/22 04:04:05;;;;;;;22.05;6.28;;;;;;;9.63;60.82;102615.72;5061271;28;20099;-83
2021/03/22 04:06:34;;;;;;;30.98;6.20;;;;;;;9.69;60.94;102620.19;5060135;28;20043;-84
2021/03/22 04:09:08;;;;;;;19.13;5.53;;;;;;;9.71;60.37;102613.16;5058976;28;20036;-83
2021/03/22 04:14:23;;;;;;;27.67;6.50;;;;;;;9.70;60.91;102611.38;5080935;27;20818;-85
2021/03/22 04:16:50;;;;;;;26.00;6.75;;;;;;;9.67;60.88;102616.63;5062298;28;20100;-84
2021/03/22 04:19:18;;;;;;;19.77;5.32;;;;;;;9.64;60.98;102617.47;5059498;28;20025;-84
2021/03/22 04:21:45;;;;;;;26.40;5.85;;;;;;;9.64;60.29;102622.78;5047777;28;20113;-83
2021/03/22 04:24:13;;;;;;;22.73;5.72;;;;;;;9.64;60.57;102617.47;5040258;28;20576;-84
2021/03/22 04:26:39;;;;;;;15.15;4.88;;;;;;;9.62;60.98;102619.25;5036645;28;20025;-84
2021/03/22 04:29:06;;;;;;;29.00;5.28;;;;;;;9.61;60.57;102613.91;5037623;28;20037;-83
2021/03/22 04:31:32;;;;;;;22.45;5.05;;;;;;;9.48;61.00;102618.16;5066376;22;20045;-80
2021/03/22 04:34:00;;;;;;;24.30;5.20;;;;;;;9.50;61.42;102625.25;5063299;28;20040;-79
2021/03/22 04:36:32;;;;;;;28.02;5.43;;;;;;;9.54;61.41;102626.19;5063112;28;20380;-80
2021/03/22 04:38:59;;;;;;;43.85;7.63;;;;;;;9.51;61.17;102631.44;5060428;28;20024;-80
2021/03/22 04:41:26;;;;;;;21.40;5.15;;;;;;;9.52;60.99;102626.16;5065854;28;20120;-80
2021/03/22 04:43:53;;;;;;;23.85;6.07;;;;;;;9.35;61.38;102631.22;5069495;28;20020;-81
2021/03/22 04:46:20;;;;;;;27.30;4.10;;;;;;;9.39;61.07;102627.78;5069013;28;20024;-80
2021/03/22 04:48:46;;;;;;;21.55;4.97;;;;;;;9.37;61.17;102632.16;5068816;28;20549;-80
2021/03/22 04:51:13;;;;;;;21.25;5.45;;;;;;;9.36;61.06;102632.13;5068718;28;20049;-80
2021/03/22 04:53:39;;;;;;;28.65;4.60;;;;;;;9.38;61.39;102630.38;5069281;28;20029;-80
2021/03/22 04:56:07;;;;;;;17.45;4.53;;;;;;;9.48;61.07;102634.03;5068461;28;20029;-80
2021/03/22 04:58:35;;;;;;;16.27;4.55;;;;;;;9.49;60.95;102630.53;5068821;28;20116;-80
2021/03/22 05:01:02;;;;;;;23.05;5.25;;;;;;;9.49;60.49;102635.81;5068673;28;20112;-79
2021/03/22 05:03:29;;;;;;;21.63;3.90;;;;;;;9.53;60.89;102642.91;5068186;28;20037;-79
2021/03/22 05:05:55;;;;;;;22.08;4.38;;;;;;;9.43;60.95;102638.38;5068353;28;20146;-80
2021/03/22 05:08:23;;;;;;;17.70;4.70;;;;;;;9.48;60.73;102634.03;5068902;28;20028;-80
2021/03/22 05:10:53;;;;;;;16.95;3.88;;;;;;;9.39;60.81;102638.34;5065850;28;20109;-80
2021/03/22 05:13:22;;;;;;;22.23;4.70;;;;;;;9.47;61.06;102637.53;5068795;28;20167;-79
2021/03/22 05:15:50;;;;;;;23.95;5.00;;;;;;;9.49;60.43;102644.63;5067835;28;20456;-80
2021/03/22 05:18:17;;;;;;;16.75;3.45;;;;;;;9.45;60.90;102641.94;5068385;28;20442;-81
2021/03/22 05:20:49;;;;;;;21.17;3.85;;;;;;;9.51;60.33;102642.03;5068339;28;20079;-80
2021/03/22 05:23:20;;;;;;;17.17;3.80;;;;;;;9.45;60.52;102644.59;5066789;28;20434;-78
2021/03/22 05:25:47;;;;;;;20.17;4.75;;;;;;;9.44;61.02;102645.47;5053860;28;20043;-79
2021/03/22 05:28:14;;;;;;;14.18;4.38;;;;;;;9.37;61.11;102645.38;5054660;28;20017;-80
2021/03/22 05:30:41;;;;;;;17.30;4.30;;;;;;;9.36;60.97;102648.88;5054563;28;20049;-79
2021/03/22 05:33:11;;;;;;;19.95;3.88;;;;;;;9.43;60.98;102648.97;5054598;28;20103;-80
2021/03/22 05:35:39;;;;;;;18.67;4.13;;;;;;;9.34;61.00;102640.03;5053337;28;20100;-80
2021/03/22 05:38:07;;;;;;;26.30;3.80;;;;;;;9.44;61.05;102650.75;5054833;28;20041;-80
2021/03/22 05:43:51;;;;;;;16.13;4.03;;;;;;;9.56;60.30;102658.84;5127469;27;20377;-79
2021/03/22 05:46:44;;;;;;;16.20;4.32;;;;;;;9.61;60.18;102657.16;5129145;28;20031;-80
2021/03/22 05:49:39;;;;;;;17.40;4.00;;;;;;;9.61;60.33;102654.50;5126225;28;20023;-79
2021/03/22 05:52:33;;;;;;;15.98;3.13;;;;;;;9.67;59.94;102649.28;5115814;28;20036;-78
2021/03/22 05:57:51;;;;;;;13.10;5.13;;;;;;;9.62;60.00;102661.59;5084008;27;20409;-78
2021/03/22 06:03:03;;;;;;;21.00;4.32;;;;;;;9.62;59.99;102658.94;5030934;28;20038;-89
2021/03/22 06:08:32;;;;;;;18.92;4.63;;;;;;;9.65;59.64;102661.59;5061271;27;20491;-90
2021/03/22 06:11:04;;;;;;;11.88;3.50;;;;;;;9.64;59.55;102665.13;5042380;28;20399;-90
2021/03/22 06:13:39;;;;;;;15.80;4.18;;;;;;;9.67;58.91;102654.59;5039334;28;20087;-91
2021/03/22 06:16:18;;;;;;;10.52;3.45;;;;;;;9.69;58.98;102663.44;5038957;28;20402;-89
2021/03/22 06:18:55;;;;;;;34.75;5.78;;;;;;;9.77;58.15;102667.94;5037147;28;20504;-92
2021/03/22 06:21:22;;;;;;;17.10;4.47;;;;;;;9.69;58.70;102666.09;5036407;28;20036;-90
2021/03/22 06:23:50;;;;;;;22.60;4.78;;;;;;;9.66;58.72;102659.88;5038464;28;20373;-91
2021/03/22 06:29:24;;;;;;;14.82;3.75;;;;;;;9.77;58.27;102671.47;5113177;27;20415;-91
2021/03/22 06:31:54;;;;;;;14.80;4.38;;;;;;;9.76;58.09;102674.09;5081793;28;20113;-90
2021/03/22 06:34:30;;;;;;;15.18;5.05;;;;;;;9.69;58.33;102673.13;5073984;28;20024;-91
2021/03/22 06:36:57;;;;;;;14.85;5.07;;;;;;;9.63;58.17;102676.59;5067681;28;20040;-91
2021/03/22 06:39:23;;;;;;;16.23;4.10;;;;;;;9.70;58.00;102681.09;5068423;28;20025;-90
2021/03/22 06:41:52;;;;;;;13.93;3.38;;;;;;;9.77;57.55;102681.16;5072791;28;20044;-91
2021/03/22 06:50:13;;;;;;;10.25;3.88;;;;;;;9.80;57.52;102687.38;5062237;27;20845;-92
2021/03/22 06:52:42;;;;;;;11.18;4.13;;;;;;;9.70;57.51;102681.09;5057547;28;20025;-92
2021/03/22 06:55:31;;;;;;;17.77;3.95;;;;;;;9.93;57.15;102682.25;5056372;28;20029;-90
2021/03/22 06:57:58;;;;;;;15.95;4.70;;;;;;;9.89;57.17;102683.97;5058134;28;20029;-93
2021/03/22 07:00:28;;;;;;;20.40;4.40;;;;;;;9.92;57.39;102681.38;5056816;28;20040;-93
2021/03/22 07:03:25;;;;;;;10.73;3.58;;;;;;;10.00;57.58;102679.69;5036335;28;20037;-95
2021/03/22 07:05:51;;;;;;;9.40;3.08;;;;;;;9.93;57.46;102672.56;5064690;28;20049;-96
2021/03/22 07:08:39;;;;;;;17.00;5.80;;;;;;;9.94;57.33;102669.03;5066568;28;20037;-96
2021/03/22 07:11:10;;;;;;;16.02;3.58;;;;;;;10.01;57.55;102665.59;5056244;28;20578;-95
2021/03/22 07:13:37;;;;;;;22.13;4.47;;;;;;;9.97;57.43;102677.03;5057287;28;20037;-96
2021/03/22 07:22:02;;;;;;;14.43;3.90;;;;;;;10.09;57.67;102688.63;5145091;27;20364;-96
2021/03/22 07:24:46;;;;;;;18.92;5.05;;;;;;;10.19;57.62;102693.16;5136344;27;20035;-96
2021/03/22 07:38:11;;;;;;;17.15;4.97;;;;;;;10.31;56.83;102685.34;5071460;28;20410;-82
2021/03/22 07:40:52;;;;;;;16.27;3.88;;;;;;;10.35;57.20;102680.97;5056707;28;20112;-83
2021/03/22 07:46:47;;;;;;;18.52;3.38;;;;;;;10.24;57.90;102691.44;5108573;27;20405;-81
2021/03/22 07:52:27;;;;;;;8.75;2.33;;;;;;;10.29;57.41;102692.41;5053689;27;20949;-80
2021/03/22 07:55:33;;;;;;;9.43;2.97;;;;;;;10.04;57.62;102689.47;5047952;28;20035;-78
2021/03/22 08:09:53;;;;;;;6.97;2.58;;;;;;;10.92;56.02;102684.19;5128435;27;20370;-82
2021/03/22 08:12:43;;;;;;;9.07;2.55;;;;;;;10.96;55.35;102679.78;5128794;28;20532;-83
2021/03/22 08:23:47;;;;;;;3.97;1.23;;;;;;;10.91;54.56;102690.34;5069947;27;20416;-82
2021/03/22 08:26:21;;;;;;;4.00;1.50;;;;;;;10.83;53.91;102700.03;5061410;28;20057;-83
2021/03/22 08:31:56;;;;;;;8.63;1.45;;;;;;;10.90;54.23;102699.19;5105263;27;20367;-83
2021/03/22 08:34:51;;;;;;;5.70;1.25;;;;;;;11.07;54.06;102709.06;5084332;28;20036;-84
2021/03/22 08:37:42;;;;;;;8.30;1.80;;;;;;;11.00;54.00;102698.41;5072718;28;20079;-82
2021/03/22 08:40:21;;;;;;;5.88;1.45;;;;;;;11.05;54.07;102697.53;5080661;28;20028;-83
2021/03/22 08:45:37;;;;;;;7.13;2.13;;;;;;;11.11;54.12;102705.53;5073565;28;20450;-82
2021/03/22 08:48:14;;;;;;;5.25;1.60;;;;;;;11.04;53.32;102704.63;5060536;28;20029;-82
2021/03/22 08:50:41;;;;;;;3.80;1.95;;;;;;;10.92;53.40;102700.09;5051210;28;20472;-80
2021/03/22 08:55:59;;;;;;;5.07;1.63;;;;;;;10.94;53.69;102711.59;5093111;27;20378;-82
2021/03/22 08:58:33;;;;;;;3.92;1.30;;;;;;;10.97;53.14;102714.28;5091955;28;20140;-82
2021/03/22 09:01:29;;;;;;;10.00;2.05;;;;;;;10.87;53.22;102716.84;5091154;28;20033;-83
2021/03/22 09:04:21;;;;;;;4.78;1.95;;;;;;;10.91;53.42;102711.56;5093162;28;20026;-83
2021/03/22 09:09:45;;;;;;;4.60;2.00;;;;;;;10.91;54.18;102711.56;5098080;27;20908;-81
2021/03/22 09:12:34;;;;;;;7.93;1.75;;;;;;;10.96;54.25;102716.91;5055332;28;20383;-83
2021/03/22 09:15:10;;;;;;;4.43;1.30;;;;;;;11.08;53.94;102710.81;5057459;28;20033;-83
2021/03/22 09:27:02;;;;;;;9.95;2.25;;;;;;;11.11;54.48;102710.84;5075348;27;20390;-82
2021/03/22 09:38:37;;;;;;;5.72;1.40;;;;;;;10.78;53.30;102720.28;5078691;28;20399;-85
2021/03/22 09:41:04;;;;;;;3.55;1.45;;;;;;;10.96;53.59;102723.09;5066764;28;20037;-82
2021/03/22 09:43:34;;;;;;;5.07;1.20;;;;;;;10.84;53.49;102723.00;5061573;28;20044;-81
2021/03/22 09:46:05;;;;;;;26.55;13.43;;;;;;;10.69;54.45;102734.34;5061312;28;20045;-81
2021/03/22 09:48:36;;;;;;;8.35;2.55;;;;;;;10.65;55.16;102725.50;5057260;28;20025;-81
2021/03/22 09:54:03;;;;;;;7.90;2.65;;;;;;;10.99;54.83;102728.44;5082084;27;20915;-83
2021/03/22 09:59:34;;;;;;;4.70;1.95;;;;;;;11.05;55.18;102732.03;5052224;27;20135;-85
2021/03/22 10:02:22;;;;;;;6.75;1.98;;;;;;;11.16;55.04;102725.03;5048795;28;20413;-82
2021/03/22 10:08:15;;;;;;;3.95;1.45;;;;;;;11.52;54.90;102723.53;5070815;27;20426;-83
2021/03/22 10:10:52;;;;;;;4.43;1.20;;;;;;;11.58;53.30;102728.88;5053651;28;20428;-83
2021/03/22 10:13:27;;;;;;;5.22;1.30;;;;;;;11.77;53.76;102721.88;5047253;28;20037;-83
2021/03/22 10:18:49;;;;;;;3.10;1.13;;;;;;;11.94;52.42;102732.59;5081437;28;20395;-83
2021/03/22 10:21:25;;;;;;;4.57;1.30;;;;;;;11.90;52.17;102736.13;5048884;28;20113;-83
2021/03/22 10:24:01;;;;;;;2.45;1.00;;;;;;;12.13;52.31;102733.59;5038715;28;20036;-84
2021/03/22 10:32:03;;;;;;;3.15;0.70;;;;;;;12.20;51.62;102737.16;5042605;28;20880;-86
2021/03/22 10:34:40;;;;;;;1.50;0.77;;;;;;;12.05;50.03;102737.09;5041286;28;20033;-80
2021/03/22 10:37:15;;;;;;;2.15;0.85;;;;;;;12.26;50.70;102734.53;5041852;28;20060;-82
2021/03/22 10:39:47;;;;;;;3.42;0.82;;;;;;;12.46;50.80;102737.25;5039880;28;20116;-80
2021/03/22 10:42:37;;;;;;;3.28;1.20;;;;;;;12.73;49.82;102737.28;5036741;28;20045;-81
2021/03/22 10:48:22;;;;;;;2.15;0.90;;;;;;;12.89;48.92;102735.53;5104292;27;858959;-81
2021/03/22 10:51:00;;;;;;;2.70;1.08;;;;;;;12.95;48.25;102731.09;5107144;27;20028;-80
2021/03/22 10:53:26;;;;;;;2.70;0.85;;;;;;;12.95;48.38;102725.78;5085722;28;20538;-82
2021/03/22 10:55:53;;;;;;;2.97;1.33;;;;;;;12.93;48.75;102732.00;5091787;28;20029;-82
2021/03/22 10:58:33;;;;;;;2.45;0.70;;;;;;;12.71;47.10;102741.72;5092682;28;20036;-82
2021/03/22 11:01:04;;;;;;;2.50;1.10;;;;;;;12.55;48.39;102740.81;5088550;28;20048;-81
2021/03/22 11:03:31;;;;;;;3.88;0.85;;;;;;;12.20;50.01;102741.59;5089026;28;20426;-81
2021/03/22 11:05:58;;;;;;;2.92;0.80;;;;;;;12.05;50.27;102750.38;5084364;28;20020;-80
2021/03/22 11:08:29;;;;;;;2.17;0.70;;;;;;;11.88;50.66;102752.94;5087025;28;20067;-80
2021/03/22 11:13:44;;;;;;;3.08;0.60;;;;;;;11.56;51.03;102751.84;5074994;28;20494;-82
2021/03/22 11:16:19;;;;;;;1.45;0.50;;;;;;;11.66;50.90;102758.13;5066261;28;20024;-82
2021/03/22 11:18:45;;;;;;;4.18;0.73;;;;;;;11.59;51.22;102756.28;5065391;28;20163;-81
2021/03/22 11:21:12;;;;;;;1.58;0.80;;;;;;;11.65;51.33;102756.31;5062138;28;20025;-81
2021/03/22 11:23:44;;;;;;;1.83;0.80;;;;;;;11.54;51.66;102752.72;5058348;28;20029;-81
2021/03/22 11:28:50;;;;;;;1.52;0.82;;;;;;;11.64;51.92;102750.13;5108581;27;20424;-80
2021/03/22 11:31:39;;;;;;;5.05;1.27;;;;;;;11.75;51.45;102757.28;5102240;28;20094;-80
2021/03/22 11:34:16;;;;;;;4.70;1.08;;;;;;;11.64;51.22;102755.47;5097146;28;20036;-80
2021/03/22 11:36:45;;;;;;;3.95;1.10;;;;;;;11.83;51.57;102766.19;5102849;28;20024;-82
2021/03/22 11:42:20;;;;;;;2.50;0.85;;;;;;;12.13;50.62;102756.63;5081705;27;20940;-80
2021/03/22 11:44:48;;;;;;;1.70;1.00;;;;;;;12.00;51.07;102758.34;5065196;28;20032;-83
2021/03/22 11:47:44;;;;;;;2.65;0.98;;;;;;;12.21;50.34;102754.91;5068774;28;20032;-83
2021/03/22 11:50:44;;;;;;;3.67;0.90;;;;;;;12.21;50.27;102752.25;5066966;28;20033;-83
2021/03/22 11:55:54;;;;;;;3.40;1.10;;;;;;;12.32;49.82;102748.72;5077564;27;20418;-83
2021/03/22 11:58:42;;;;;;;2.70;1.25;;;;;;;12.37;49.93;102746.97;5065859;28;20033;-79
2021/03/22 12:01:16;;;;;;;3.10;0.98;;;;;;;12.33;49.65;102750.50;5065589;28;20056;-79
2021/03/22 12:03:43;;;;;;;3.85;1.02;;;;;;;12.18;49.42;102752.22;5051027;28;20033;-83
2021/03/22 12:06:15;;;;;;;2.33;0.85;;;;;;;12.13;50.30;102756.63;5051681;28;20037;-83
2021/03/22 12:08:47;;;;;;;2.20;0.50;;;;;;;12.20;49.66;102754.88;5050152;28;20087;-81
2021/03/22 12:11:19;;;;;;;2.85;0.80;;;;;;;12.20;48.99;102750.47;5051658;28;20047;-81
2021/03/22 12:13:50;;;;;;;3.00;0.77;;;;;;;12.24;49.21;102756.69;5056288;28;20025;-80
2021/03/22 12:16:20;;;;;;;1.52;0.70;;;;;;;11.96;48.71;102753.88;5054444;28;20042;-81
2021/03/22 12:18:47;;;;;;;2.80;0.77;;;;;;;11.78;49.20;102758.19;5054091;28;20025;-82
2021/03/22 12:21:14;;;;;;;3.45;0.75;;;;;;;11.79;48.89;102762.63;5055119;28;20033;-83
2021/03/22 12:23:41;;;;;;;2.08;0.73;;;;;;;11.89;48.71;102752.94;5049195;28;20044;-84
2021/03/22 12:26:10;;;;;;;3.78;0.75;;;;;;;11.95;48.72;102750.31;5052065;28;20491;-81
2021/03/22 12:28:53;;;;;;;2.20;0.70;;;;;;;11.89;48.90;102758.25;5056387;28;20500;-82
2021/03/22 12:31:22;;;;;;;2.03;0.70;;;;;;;11.92;48.78;102758.25;5052939;28;20070;-81
2021/03/22 12:33:49;;;;;;;1.63;0.80;;;;;;;11.92;48.37;102755.59;5051548;28;20021;-84
2021/03/22 12:36:17;;;;;;;0.93;0.35;;;;;;;11.85;47.96;102759.13;5052271;28;20439;-84
2021/03/22 12:38:43;;;;;;;1.90;0.70;;;;;;;12.11;47.99;102759.28;5055625;28;20506;-82
2021/03/22 12:41:20;;;;;;;1.25;0.68;;;;;;;11.98;47.46;102755.66;5053414;28;20809;-82
2021/03/22 12:43:47;;;;;;;2.75;1.38;;;;;;;12.29;47.54;102745.16;5053613;28;20053;-85
2021/03/22 12:46:14;;;;;;;1.95;0.70;;;;;;;12.30;47.72;102754.91;5060426;28;20037;-83
2021/03/22 12:48:49;;;;;;;1.75;0.75;;;;;;;12.41;47.57;102756.72;5047250;28;20034;-84
2021/03/22 12:51:16;;;;;;;1.77;0.98;;;;;;;12.24;47.19;102746.06;5048886;28;20103;-85
2021/03/22 12:53:43;;;;;;;1.60;0.88;;;;;;;12.41;47.54;102754.06;5050319;28;20571;-85
2021/03/22 12:56:12;;;;;;;1.63;1.02;;;;;;;12.30;47.10;102746.94;5051808;28;20025;-87
2021/03/22 12:58:39;;;;;;;0.60;0.52;;;;;;;12.27;46.58;102754.91;5050612;28;20087;-85
2021/03/22 13:01:08;;;;;;;2.55;1.50;;;;;;;12.33;46.70;102747.84;5047790;28;20056;-85
2021/03/22 13:03:34;;;;;;;4.00;1.10;;;;;;;12.30;46.93;102746.06;5034049;28;20057;-85
2021/03/22 13:06:01;;;;;;;1.65;0.60;;;;;;;12.29;46.32;102745.16;5042801;28;20469;-85
2021/03/22 13:08:29;;;;;;;3.00;0.85;;;;;;;12.34;46.57;102744.31;5034707;28;20496;-84
2021/03/22 13:10:57;;;;;;;6.20;1.13;;;;;;;12.16;46.64;102742.47;5042730;28;20164;-82
2021/03/22 13:13:24;;;;;;;3.50;0.80;;;;;;;12.32;45.90;102743.41;5053329;28;20033;-82
2021/03/22 13:15:54;;;;;;;3.15;0.70;;;;;;;12.26;45.70;102739.84;5053307;28;20108;-82
2021/03/22 13:18:25;;;;;;;2.38;0.60;;;;;;;12.35;46.19;102743.41;5034457;28;20491;-83
2021/03/22 13:20:57;;;;;;;4.22;1.02;;;;;;;12.30;45.60;102741.63;5034158;28;20033;-83
2021/03/22 13:23:25;;;;;;;4.10;1.35;;;;;;;12.30;45.89;102731.00;5050986;28;20592;-85
2021/03/22 13:25:52;;;;;;;2.03;1.10;;;;;;;12.26;45.94;102726.56;5052915;28;20115;-83
2021/03/22 13:28:24;;;;;;;9.70;1.92;;;;;;;12.29;46.67;102726.56;5051767;28;20484;-84
2021/03/22 13:31:08;;;;;;;3.40;0.93;;;;;;;12.52;45.53;102716.88;5052353;28;20040;-84
2021/03/22 13:33:38;;;;;;;5.80;1.40;;;;;;;12.42;46.30;102719.53;5034269;28;20030;-83
2021/03/22 13:36:07;;;;;;;3.53;1.08;;;;;;;12.37;45.52;102715.06;5037020;28;20052;-83
2021/03/22 13:38:34;;;;;;;1.75;0.70;;;;;;;12.35;45.49;102716.81;5041178;28;20040;-83
2021/03/22 13:41:03;;;;;;;4.32;1.23;;;;;;;12.47;45.12;102716.84;5038600;28;20029;-83
2021/03/22 13:43:31;;;;;;;3.92;1.00;;;;;;;12.42;45.13;102708.88;5033788;28;20261;-84
2021/03/22 13:45:59;;;;;;;1.85;0.73;;;;;;;12.33;44.48;102715.94;5045012;28;20369;-83
2021/03/22 13:48:27;;;;;;;3.13;0.80;;;;;;;12.39;44.71;102708.00;5041903;28;20030;-84
2021/03/22 13:50:54;;;;;;;2.92;0.80;;;;;;;12.56;44.27;102700.94;5041773;28;20096;-83
2021/03/22 13:53:25;;;;;;;6.45;1.00;;;;;;;12.59;44.11;102706.25;5043046;28;20029;-84
2021/03/22 13:55:53;;;;;;;6.57;1.50;;;;;;;12.66;44.08;102707.16;5043117;28;20404;-83
2021/03/22 13:58:24;;;;;;;1.60;0.75;;;;;;;12.77;44.19;102701.81;5041252;28;20588;-84
2021/03/22 14:00:51;;;;;;;1.10;0.50;;;;;;;12.74;44.10;102699.19;5034643;28;20033;-83
2021/03/22 14:03:20;;;;;;;3.25;0.80;;;;;;;12.82;43.53;102702.72;5040238;28;20099;-83
2021/03/22 14:05:47;;;;;;;4.97;1.60;;;;;;;12.79;44.04;102703.59;5042639;28;20037;-84